createdAt,value
2018-09-04T00:02:26.748Z,18.45
2018-09-04T00:04:53.663Z,18.21
2018-09-04T00:07:21.895Z,18.11
2018-09-04T00:09:49.447Z,18.72
2018-09-04T00:12:16.494Z,17.99
2018-09-04T00:14:44.207Z,17.82
2018-09-04T00:17:11.148Z,17.99
2018-09-04T00:19:38.189Z,18.10
2018-09-04T00:22:05.176Z,18.12
2018-09-04T00:24:32.208Z,18.21
2018-09-04T00:26:59.140Z,17.95
2018-09-04T00:29:27.060Z,17.98
2018-09-04T00:31:54.024Z,17.99
2018-09-04T00:34:21.045Z,18.61
2018-09-04T00:36:47.959Z,18.06
2018-09-04T00:39:14.871Z,18.14
2018-09-04T00:41:41.880Z,17.95
2018-09-04T00:44:08.807Z,17.96
2018-09-04T00:46:35.776Z,17.96
2018-09-04T00:49:02.736Z,17.88
2018-09-04T00:51:30.704Z,17.63
2018-09-04T00:53:57.664Z,17.29
2018-09-04T00:56:24.624Z,17.29
2018-09-04T00:58:51.639Z,17.17
2018-09-04T01:01:18.507Z,17.40
2018-09-04T01:03:45.516Z,17.34
2018-09-04T01:06:12.460Z,17.27
2018-09-04T01:08:39.404Z,17.31
2018-09-04T01:11:06.276Z,17.13
2018-09-04T01:13:39.739Z,17.23
2018-09-04T01:16:06.738Z,17.40
2018-09-04T01:18:33.697Z,17.44
2018-09-04T01:21:01.127Z,17.26
2018-09-04T01:23:28.113Z,17.03
2018-09-04T01:25:55.090Z,16.98
2018-09-04T01:28:22.056Z,17.07
2018-09-04T01:30:49.001Z,17.18
2018-09-04T01:33:15.908Z,17.36
2018-09-04T01:35:42.959Z,17.24
2018-09-04T01:38:09.876Z,17.50
2018-09-04T01:40:37.749Z,17.94
2018-09-04T01:43:04.696Z,17.37
2018-09-04T01:45:32.183Z,17.02
2018-09-04T01:47:59.128Z,17.01
2018-09-04T01:50:26.083Z,17.05
2018-09-04T01:52:53.006Z,17.00
2018-09-04T01:55:19.919Z,16.65
2018-09-04T01:57:46.879Z,16.30
2018-09-04T02:00:14.831Z,16.32
2018-09-04T02:02:41.768Z,16.24
2018-09-04T02:05:08.683Z,16.27
2018-09-04T02:07:35.630Z,16.27
2018-09-04T02:10:02.556Z,16.28
2018-09-04T02:12:29.524Z,16.26
2018-09-04T02:14:56.479Z,16.05
2018-09-04T02:17:23.443Z,16.01
2018-09-04T02:19:51.447Z,16.02
2018-09-04T02:22:20.289Z,16.11
2018-09-04T02:24:47.659Z,16.16
2018-09-04T02:27:14.669Z,16.13
2018-09-04T02:29:41.615Z,16.22
2018-09-04T02:32:08.635Z,16.31
2018-09-04T02:34:35.616Z,16.30
2018-09-04T02:37:02.538Z,16.02
2018-09-04T02:39:31.272Z,16.07
2018-09-04T02:41:58.227Z,16.03
2018-09-04T02:44:25.156Z,15.98
2018-09-04T02:46:52.731Z,16.10
2018-09-04T02:49:19.732Z,16.01
2018-09-04T02:51:46.690Z,15.96
2018-09-04T02:54:13.675Z,16.18
2018-09-04T02:56:40.571Z,16.14
2018-09-04T02:59:07.455Z,16.36
2018-09-04T03:01:34.403Z,16.40
2018-09-04T03:04:01.375Z,16.37
2018-09-04T03:06:28.274Z,16.39
2018-09-04T03:08:55.312Z,16.29
2018-09-04T03:11:22.320Z,16.00
2018-09-04T03:13:49.322Z,15.94
2018-09-04T03:16:16.308Z,16.14
2018-09-04T03:18:43.172Z,16.18
2018-09-04T03:21:10.204Z,16.28
2018-09-04T03:23:37.087Z,16.00
2018-09-04T03:26:04.032Z,15.71
2018-09-04T03:28:30.912Z,16.02
2018-09-04T03:30:58.688Z,16.00
2018-09-04T03:33:26.471Z,16.04
2018-09-04T03:35:54.581Z,16.01
2018-09-04T03:38:21.526Z,16.12
2018-09-04T03:40:48.444Z,16.15
2018-09-04T03:43:15.356Z,16.15
2018-09-04T03:45:42.303Z,15.95
2018-09-04T03:48:10.799Z,16.09
2018-09-04T03:50:38.675Z,16.09
2018-09-04T03:53:05.638Z,16.27
2018-09-04T03:55:32.594Z,16.38
2018-09-04T03:57:59.544Z,16.45
2018-09-04T04:00:26.540Z,16.54
2018-09-04T04:02:53.407Z,16.43
2018-09-04T04:05:20.318Z,16.29
2018-09-04T04:07:48.429Z,16.18
2018-09-04T04:10:15.377Z,16.28
2018-09-04T04:12:42.318Z,16.25
2018-09-04T04:15:09.330Z,16.21
2018-09-04T04:17:36.335Z,16.01
2018-09-04T04:20:03.308Z,16.27
2018-09-04T04:22:30.248Z,16.11
2018-09-04T04:24:57.236Z,16.17
2018-09-04T04:27:24.169Z,16.39
2018-09-04T04:29:51.127Z,16.36
2018-09-04T04:32:18.051Z,16.50
2018-09-04T04:34:45.039Z,16.57
2018-09-04T04:37:12.001Z,16.51
2018-09-04T04:39:38.955Z,16.56
2018-09-04T04:42:05.910Z,16.55
2018-09-04T04:44:32.827Z,16.55
2018-09-04T04:46:59.905Z,16.70
2018-09-04T04:49:26.938Z,16.71
2018-09-04T04:51:53.885Z,16.71
2018-09-04T04:54:20.830Z,16.77
2018-09-04T04:56:47.771Z,16.77
2018-09-04T04:59:15.317Z,16.82
2018-09-04T05:01:42.307Z,16.89
2018-09-04T05:04:09.239Z,16.83
2018-09-04T05:06:36.175Z,16.73
2018-09-04T05:09:04.520Z,16.72
2018-09-04T05:11:31.447Z,16.52
2018-09-04T05:13:59.746Z,16.60
2018-09-04T05:16:26.559Z,16.48
2018-09-04T05:18:53.514Z,16.60
2018-09-04T05:21:20.524Z,16.68
2018-09-04T05:23:47.487Z,16.75
2018-09-04T05:26:15.251Z,16.90
2018-09-04T05:28:42.110Z,17.04
2018-09-04T05:31:09.072Z,17.15
2018-09-04T05:33:40.588Z,17.27
2018-09-04T05:36:07.683Z,17.24
2018-09-04T05:38:36.840Z,17.20
2018-09-04T05:41:06.064Z,17.28
2018-09-04T05:43:49.989Z,17.32
2018-09-04T05:46:41.620Z,17.45
2018-09-04T05:49:08.748Z,17.59
2018-09-04T05:51:37.296Z,17.59
2018-09-04T05:54:04.311Z,17.61
2018-09-04T05:56:31.227Z,17.60
2018-09-04T05:58:58.234Z,17.77
2018-09-04T06:01:25.836Z,17.85
2018-09-04T06:03:52.835Z,17.86
2018-09-04T06:06:19.874Z,17.86
2018-09-04T06:08:46.833Z,17.80
2018-09-04T06:11:13.823Z,17.85
2018-09-04T06:13:41.426Z,17.87
2018-09-04T06:16:08.388Z,17.94
2018-09-04T06:18:35.296Z,17.84
2018-09-04T06:21:02.263Z,17.89
2018-09-04T06:23:29.239Z,17.69
2018-09-04T06:25:56.239Z,17.79
2018-09-04T06:28:23.192Z,18.01
2018-09-04T06:30:50.060Z,18.22
2018-09-04T06:33:16.980Z,18.15
2018-09-04T06:35:44.019Z,18.31
2018-09-04T06:38:10.993Z,18.22
2018-09-04T06:40:37.924Z,18.41
2018-09-04T06:43:04.911Z,18.49
2018-09-04T06:45:31.866Z,18.43
2018-09-04T06:47:58.799Z,18.38
2018-09-04T06:50:25.747Z,18.37
2018-09-04T06:52:52.718Z,18.34
2018-09-04T06:55:19.691Z,18.33
2018-09-04T06:57:46.657Z,18.30
2018-09-04T07:00:14.394Z,18.30
2018-09-04T07:02:41.336Z,18.43
2018-09-04T07:05:09.121Z,18.67
2018-09-04T07:07:36.127Z,18.75
2018-09-04T07:10:03.069Z,18.95
2018-09-04T07:12:30.034Z,19.04
2018-09-04T07:14:56.965Z,19.21
2018-09-04T07:17:23.980Z,19.12
2018-09-04T07:19:50.892Z,19.04
2018-09-04T07:22:18.324Z,19.08
2018-09-04T07:24:45.323Z,19.31
2018-09-04T07:27:12.284Z,19.66
2018-09-04T07:29:39.235Z,19.84
2018-09-04T07:32:06.197Z,19.88
2018-09-04T07:34:33.178Z,20.21
2018-09-04T07:37:00.095Z,20.14
2018-09-04T07:39:27.063Z,19.82
2018-09-04T07:41:54.048Z,20.28
2018-09-04T07:44:20.944Z,20.19
2018-09-04T07:46:47.935Z,20.23
2018-09-04T07:49:14.880Z,20.48
2018-09-04T07:51:41.840Z,20.87
2018-09-04T07:54:08.764Z,20.98
2018-09-04T07:56:35.755Z,21.22
2018-09-04T07:59:02.747Z,21.46
2018-09-04T08:01:29.671Z,21.82
2018-09-04T08:03:56.627Z,21.96
2018-09-04T08:06:23.675Z,21.61
2018-09-04T08:08:50.647Z,21.92
2018-09-04T08:11:17.600Z,21.98
2018-09-04T08:13:44.551Z,22.40
2018-09-04T08:16:11.858Z,22.30
2018-09-04T08:18:38.831Z,22.37
2018-09-04T08:21:06.029Z,22.68
2018-09-04T08:23:33.035Z,23.39
2018-09-04T08:26:00.022Z,23.37
2018-09-04T08:28:26.903Z,22.98
2018-09-04T08:30:53.878Z,23.35
2018-09-04T08:33:20.983Z,23.25
2018-09-04T08:35:48.381Z,23.23
2018-09-04T08:38:16.032Z,22.87
2018-09-04T08:40:42.962Z,23.42
2018-09-04T08:43:09.886Z,23.79
2018-09-04T08:45:36.896Z,23.95
2018-09-04T08:48:16.610Z,23.98
2018-09-04T08:50:43.670Z,23.50
2018-09-04T08:53:10.575Z,23.05
2018-09-04T08:55:37.491Z,22.80
2018-09-04T08:58:04.545Z,22.92
2018-09-04T09:00:31.587Z,23.10
2018-09-04T09:02:58.585Z,22.86
2018-09-04T09:05:26.518Z,23.08
2018-09-04T09:07:53.495Z,23.50
2018-09-04T09:10:20.468Z,24.14
2018-09-04T09:12:47.436Z,24.20
2018-09-04T09:15:14.393Z,23.39
2018-09-04T09:17:41.343Z,23.99
2018-09-04T09:20:08.403Z,24.60
2018-09-04T09:22:35.355Z,25.04
2018-09-04T09:25:02.338Z,25.21
2018-09-04T09:27:29.328Z,25.77
2018-09-04T09:29:56.332Z,25.90
2018-09-04T09:32:23.302Z,26.04
2018-09-04T09:34:50.220Z,26.44
2018-09-04T09:37:17.244Z,26.48
2018-09-04T09:39:44.138Z,25.57
2018-09-04T09:42:12.216Z,25.84
2018-09-04T09:44:39.792Z,25.67
2018-09-04T09:47:06.759Z,25.37
2018-09-04T09:49:33.731Z,25.18
2018-09-04T09:52:00.648Z,25.89
2018-09-04T09:54:27.640Z,25.89
2018-09-04T09:56:54.617Z,25.55
2018-09-04T09:59:21.594Z,25.11
2018-09-04T10:01:52.375Z,24.54
2018-09-04T10:04:20.031Z,25.06
2018-09-04T10:06:47.165Z,25.10
2018-09-04T10:09:15.062Z,24.79
2018-09-04T10:11:41.973Z,25.10
2018-09-04T10:14:08.939Z,25.32
2018-09-04T10:16:35.872Z,25.57
2018-09-04T10:19:02.763Z,25.87
2018-09-04T10:21:29.729Z,25.71
2018-09-04T10:23:56.651Z,25.28
2018-09-04T10:26:23.814Z,25.72
2018-09-04T10:28:50.688Z,25.68
2018-09-04T10:31:18.555Z,25.90
2018-09-04T10:33:45.535Z,26.06
2018-09-04T10:36:12.541Z,25.92
2018-09-04T10:38:39.411Z,26.36
2018-09-04T10:41:13.037Z,26.18
2018-09-04T10:43:40.076Z,26.32
2018-09-04T10:46:09.597Z,25.68
2018-09-04T10:48:37.497Z,25.54
2018-09-04T10:51:05.327Z,25.56
2018-09-04T10:53:33.142Z,26.16
2018-09-04T10:56:00.131Z,26.76
2018-09-04T10:58:27.084Z,27.07
2018-09-04T11:00:55.068Z,27.25
2018-09-04T11:03:25.324Z,27.42
2018-09-04T11:05:52.311Z,27.58
2018-09-04T11:08:19.593Z,27.45
2018-09-04T11:10:46.560Z,26.93
2018-09-04T11:13:13.511Z,27.47
2018-09-04T11:15:40.555Z,27.96
2018-09-04T11:18:08.571Z,28.27
2018-09-04T11:20:35.552Z,28.00
2018-09-04T11:23:02.499Z,28.04
2018-09-04T11:25:29.634Z,28.25
2018-09-04T11:27:56.615Z,27.40
2018-09-04T11:30:23.552Z,27.90
2018-09-04T11:32:50.524Z,27.07
2018-09-04T11:35:17.463Z,27.07
2018-09-04T11:37:44.453Z,27.64
2018-09-04T11:40:11.395Z,28.09
2018-09-04T11:42:38.366Z,28.47
2018-09-04T11:45:06.120Z,27.62
2018-09-04T11:47:33.219Z,26.06
2018-09-04T11:50:00.146Z,25.85
2018-09-04T11:52:27.148Z,26.09
2018-09-04T11:54:54.051Z,25.35
2018-09-04T11:57:20.982Z,25.23
2018-09-04T11:59:48.005Z,25.39
2018-09-04T12:02:20.435Z,25.35
2018-09-04T12:04:47.403Z,25.50
2018-09-04T12:07:14.343Z,25.69
2018-09-04T12:09:41.313Z,26.10
2018-09-04T12:12:27.797Z,25.98
2018-09-04T12:14:54.707Z,26.18
2018-09-04T12:17:21.639Z,26.85
2018-09-04T12:20:13.835Z,27.09
2018-09-04T12:22:40.768Z,27.38
2018-09-04T12:25:07.748Z,27.42
2018-09-04T12:27:34.667Z,27.88
2018-09-04T12:30:01.640Z,28.33
2018-09-04T12:32:28.631Z,27.31
2018-09-04T12:34:55.571Z,27.09
2018-09-04T12:37:22.568Z,26.71
2018-09-04T12:39:55.242Z,26.97
2018-09-04T12:42:22.217Z,26.89
2018-09-04T12:44:49.127Z,27.03
2018-09-04T12:47:16.051Z,27.79
2018-09-04T12:49:43.031Z,28.12
2018-09-04T12:52:10.027Z,28.67
2018-09-04T12:54:36.959Z,28.89
2018-09-04T12:57:03.937Z,29.40
2018-09-04T12:59:30.835Z,29.07
2018-09-04T13:01:57.811Z,28.89
2018-09-04T13:04:24.816Z,29.07
2018-09-04T13:06:51.791Z,28.58
2018-09-04T13:09:18.766Z,28.85
2018-09-04T13:11:45.748Z,28.54
2018-09-04T13:14:12.713Z,28.13
2018-09-04T13:16:39.688Z,27.82
2018-09-04T13:19:06.645Z,27.55
2018-09-04T13:21:33.595Z,27.43
2018-09-04T13:24:00.535Z,27.44
2018-09-04T13:26:27.499Z,27.35
2018-09-04T13:28:54.458Z,26.89
2018-09-04T13:31:21.392Z,27.03
2018-09-04T13:33:49.220Z,27.02
2018-09-04T13:36:16.155Z,26.65
2018-09-04T13:38:43.127Z,26.65
2018-09-04T13:41:10.073Z,26.59
2018-09-04T13:43:38.346Z,26.68
2018-09-04T13:46:05.450Z,27.03
2018-09-04T13:48:33.098Z,26.91
2018-09-04T13:51:00.665Z,26.84
2018-09-04T13:53:28.623Z,26.71
2018-09-04T13:55:55.991Z,26.80
2018-09-04T13:58:22.965Z,26.52
2018-09-04T14:00:49.915Z,26.60
2018-09-04T14:03:16.891Z,26.88
2018-09-04T14:05:43.831Z,27.07
2018-09-04T14:08:12.051Z,26.96
2018-09-04T14:10:39.010Z,26.70
2018-09-04T14:13:05.949Z,26.80
2018-09-04T14:15:32.893Z,26.70
2018-09-04T14:17:59.872Z,27.11
2018-09-04T14:20:26.836Z,27.41
2018-09-04T14:22:54.733Z,27.90
2018-09-04T14:25:21.697Z,27.93
2018-09-04T14:27:48.600Z,28.29
2018-09-04T14:30:16.714Z,28.80
2018-09-04T14:32:43.603Z,28.69
2018-09-04T14:35:10.612Z,28.97
2018-09-04T14:37:37.652Z,28.67
2018-09-04T14:40:05.500Z,28.06
2018-09-04T14:42:32.471Z,27.70
2018-09-04T14:44:59.428Z,27.35
2018-09-04T14:47:26.311Z,27.38
2018-09-04T14:49:53.240Z,27.25
2018-09-04T14:52:20.227Z,27.18
2018-09-04T14:54:48.239Z,27.04
2018-09-04T14:57:15.163Z,26.90
2018-09-04T14:59:42.129Z,27.29
2018-09-04T15:02:09.084Z,27.28
2018-09-04T15:04:36.047Z,27.26
2018-09-04T15:07:03.043Z,26.96
2018-09-04T15:09:29.963Z,26.82
2018-09-04T15:11:56.926Z,27.29
2018-09-04T15:14:23.863Z,27.30
2018-09-04T15:16:51.801Z,27.35
2018-09-04T15:19:18.701Z,27.69
2018-09-04T15:21:45.671Z,27.62
2018-09-04T15:24:12.602Z,27.79
2018-09-04T15:26:39.583Z,27.94
2018-09-04T15:29:06.661Z,27.78
2018-09-04T15:31:33.603Z,27.45
2018-09-04T15:34:00.543Z,27.28
2018-09-04T15:36:27.504Z,27.37
2018-09-04T15:38:55.183Z,27.21
2018-09-04T15:41:22.139Z,26.99
2018-09-04T15:43:49.092Z,27.03
2018-09-04T15:46:16.195Z,26.93
2018-09-04T15:48:43.184Z,27.03
2018-09-04T15:51:10.183Z,27.02
2018-09-04T15:53:37.127Z,27.11
2018-09-04T15:56:04.076Z,27.24
2018-09-04T15:58:31.335Z,27.14
2018-09-04T16:00:58.311Z,26.91
2018-09-04T16:03:25.252Z,26.86
2018-09-04T16:05:52.215Z,26.92
2018-09-04T16:08:19.171Z,27.02
2018-09-04T16:10:46.146Z,27.25
2018-09-04T16:13:13.214Z,27.19
2018-09-04T16:15:40.163Z,27.13
2018-09-04T16:18:07.436Z,26.84
2018-09-04T16:20:34.558Z,26.75
2018-09-04T16:23:01.461Z,26.87
2018-09-04T16:25:28.403Z,26.74
2018-09-04T16:27:55.364Z,26.79
2018-09-04T16:30:22.315Z,27.11
2018-09-04T16:32:49.299Z,27.36
2018-09-04T16:35:16.232Z,27.14
2018-09-04T16:37:43.199Z,26.83
2018-09-04T16:40:10.141Z,26.93
2018-09-04T16:42:37.112Z,27.13
2018-09-04T16:45:04.311Z,27.14
2018-09-04T16:47:31.224Z,27.13
2018-09-04T16:49:58.191Z,27.34
2018-09-04T16:52:25.127Z,27.15
2018-09-04T16:54:52.099Z,27.16
2018-09-04T16:57:19.063Z,26.96
2018-09-04T16:59:46.044Z,27.06
2018-09-04T17:02:12.993Z,27.20
2018-09-04T17:04:39.928Z,27.40
2018-09-04T17:07:10.569Z,27.53
2018-09-04T17:09:37.528Z,27.51
2018-09-04T17:12:04.476Z,27.47
2018-09-04T17:14:31.446Z,27.33
2018-09-04T17:16:58.395Z,27.03
2018-09-04T17:19:25.363Z,26.94
2018-09-04T17:21:52.373Z,27.33
2018-09-04T17:24:19.283Z,26.86
2018-09-04T17:26:46.263Z,26.82
2018-09-04T17:29:13.208Z,26.82
2018-09-04T17:31:40.155Z,26.75
2018-09-04T17:34:07.075Z,26.52
2018-09-04T17:36:34.076Z,26.42
2018-09-04T17:39:01.019Z,26.30
2018-09-04T17:41:28.478Z,26.19
2018-09-04T17:43:55.447Z,26.14
2018-09-04T17:46:22.534Z,26.06
2018-09-04T17:48:49.490Z,25.85
2018-09-04T17:51:16.488Z,25.57
2018-09-04T17:53:43.421Z,25.54
2018-09-04T17:56:10.367Z,25.45
2018-09-04T17:58:37.279Z,25.34
2018-09-04T18:01:07.124Z,25.23
2018-09-04T18:03:34.305Z,25.21
2018-09-04T18:06:01.275Z,25.09
2018-09-04T18:08:28.211Z,25.07
2018-09-04T18:10:55.180Z,25.88
2018-09-04T18:13:22.827Z,25.17
2018-09-04T18:15:49.835Z,24.98
2018-09-04T18:18:16.867Z,24.98
2018-09-04T18:20:43.845Z,24.87
2018-09-04T18:23:10.798Z,24.47
2018-09-04T18:25:37.792Z,24.45
2018-09-04T18:28:04.775Z,24.41
2018-09-04T18:30:31.735Z,24.23
2018-09-04T18:32:58.724Z,24.31
2018-09-04T18:35:25.750Z,24.39
2018-09-04T18:37:52.741Z,24.10
2018-09-04T18:40:19.707Z,23.92
2018-09-04T18:42:46.653Z,23.85
2018-09-04T18:45:40.777Z,24.45
2018-09-04T18:48:07.715Z,23.55
2018-09-04T18:50:35.268Z,23.49
2018-09-04T18:53:02.215Z,23.66
2018-09-04T18:55:29.179Z,23.73
2018-09-04T18:57:56.143Z,23.68
2018-09-04T19:00:23.713Z,23.57
2018-09-04T19:02:50.700Z,23.53
2018-09-04T19:05:18.492Z,23.55
2018-09-04T19:07:45.404Z,23.22
2018-09-04T19:10:12.371Z,23.06
2018-09-04T19:12:39.299Z,22.81
2018-09-04T19:15:06.603Z,22.81
2018-09-04T19:17:33.605Z,22.92
2018-09-04T19:20:01.307Z,22.87
2018-09-04T19:22:28.231Z,23.00
2018-09-04T19:24:55.215Z,22.98
2018-09-04T19:27:22.176Z,23.03
2018-09-04T19:29:49.179Z,22.99
2018-09-04T19:32:16.157Z,22.98
2018-09-04T19:34:43.149Z,22.85
2018-09-04T19:37:10.229Z,22.59
2018-09-04T19:39:37.167Z,22.45
2018-09-04T19:42:04.187Z,22.62
2018-09-04T19:44:31.071Z,22.74
2018-09-04T19:46:58.063Z,22.92
2018-09-04T19:49:25.043Z,22.95
2018-09-04T19:51:52.899Z,23.10
2018-09-04T19:54:19.815Z,23.15
2018-09-04T19:56:46.813Z,23.17
2018-09-04T19:59:13.772Z,23.25
2018-09-04T20:01:40.929Z,23.21
2018-09-04T20:04:07.863Z,23.14
2018-09-04T20:06:34.867Z,22.90
2018-09-04T20:09:01.787Z,22.60
2018-09-04T20:11:28.704Z,22.56
2018-09-04T20:13:55.676Z,22.71
2018-09-04T20:16:22.691Z,22.76
2018-09-04T20:18:49.641Z,22.99
2018-09-04T20:21:16.567Z,22.83
2018-09-04T20:23:43.523Z,22.91
2018-09-04T20:26:10.501Z,22.83
2018-09-04T20:28:38.459Z,22.72
2018-09-04T20:31:05.495Z,22.69
2018-09-04T20:33:32.480Z,22.58
2018-09-04T20:35:59.413Z,22.56
2018-09-04T20:38:26.292Z,22.57
2018-09-04T20:40:53.243Z,22.40
2018-09-04T20:43:20.231Z,22.39
2018-09-04T20:45:47.231Z,22.39
2018-09-04T20:48:14.123Z,22.48
2018-09-04T20:50:41.076Z,22.51
2018-09-04T20:53:08.040Z,22.43
2018-09-04T20:55:34.996Z,22.37
2018-09-04T20:58:13.551Z,22.39
2018-09-04T21:00:52.118Z,22.32
2018-09-04T21:03:30.737Z,22.33
2018-09-04T21:06:09.307Z,22.05
2018-09-04T21:09:05.023Z,21.82
2018-09-04T21:11:32.035Z,21.81
2018-09-04T21:13:58.967Z,21.79
2018-09-04T21:16:25.938Z,21.82
2018-09-04T21:18:52.862Z,21.83
2018-09-04T21:21:20.031Z,21.74
2018-09-04T21:23:47.059Z,21.73
2018-09-04T21:26:14.051Z,21.53
2018-09-04T21:28:40.918Z,21.44
2018-09-04T21:31:07.890Z,21.45
2018-09-04T21:33:34.855Z,21.22
2018-09-04T21:36:01.811Z,21.11
2018-09-04T21:38:28.840Z,20.95
2018-09-04T21:40:55.808Z,20.90
2018-09-04T21:43:22.750Z,20.90
2018-09-04T21:45:49.738Z,20.83
2018-09-04T21:48:16.663Z,20.82
2018-09-04T21:50:43.607Z,20.92
2018-09-04T21:53:10.595Z,20.97
2018-09-04T21:55:37.559Z,21.01
2018-09-04T21:58:04.773Z,20.65
2018-09-04T22:00:31.767Z,20.65
2018-09-04T22:02:58.716Z,20.56
2018-09-04T22:05:26.317Z,20.44
2018-09-04T22:07:54.063Z,20.51
2018-09-04T22:10:21.026Z,21.22
2018-09-04T22:12:48.019Z,20.77
2018-09-04T22:15:14.951Z,20.34
2018-09-04T22:17:41.899Z,20.55
2018-09-04T22:20:08.948Z,20.00
2018-09-04T22:22:35.991Z,19.91
2018-09-04T22:25:02.859Z,19.86
2018-09-04T22:27:29.863Z,19.70
2018-09-04T22:29:56.780Z,19.55
2018-09-04T22:32:23.747Z,19.68
2018-09-04T22:34:50.691Z,19.73
2018-09-04T22:37:17.651Z,19.75
2018-09-04T22:39:44.705Z,19.75
2018-09-04T22:42:11.682Z,19.62
2018-09-04T22:44:38.635Z,19.55
2018-09-04T22:47:07.662Z,19.61
2018-09-04T22:49:34.628Z,19.62
2018-09-04T22:52:01.586Z,19.69
2018-09-04T22:54:28.642Z,19.74
2018-09-04T22:56:55.603Z,19.56
2018-09-04T22:59:22.537Z,19.60
2018-09-04T23:01:49.983Z,19.46
2018-09-04T23:04:16.959Z,19.20
2018-09-04T23:06:43.899Z,19.24
2018-09-04T23:09:10.876Z,19.30
2018-09-04T23:11:37.828Z,19.26
2018-09-04T23:14:04.799Z,18.84
2018-09-04T23:16:31.745Z,18.88
2018-09-04T23:18:58.691Z,18.90
2018-09-04T23:21:25.663Z,18.61
2018-09-04T23:23:52.642Z,18.63
2018-09-04T23:26:19.502Z,18.64
2018-09-04T23:28:46.431Z,18.54
2018-09-04T23:31:13.399Z,18.45
2018-09-04T23:33:40.370Z,18.47
2018-09-04T23:36:07.271Z,18.44
2018-09-04T23:38:34.975Z,18.45
2018-09-04T23:41:01.954Z,18.35
2018-09-04T23:43:28.905Z,18.32
2018-09-04T23:45:55.870Z,18.42
2018-09-04T23:48:22.795Z,18.35
2018-09-04T23:50:49.779Z,18.32
2018-09-04T23:53:16.801Z,18.23
2018-09-04T23:55:43.792Z,18.42
2018-09-04T23:58:10.740Z,19.07
